Golden Triangle Regional Airport Columbus, W Point, Starkville US
ICAO: KGTR
IATA: GTR
Category: Medium
Scheduled Services: Yes

Elevation: 264 ft
TransAlt. 18000 ft.

Airport Communications:
COLUMBUS APP/DEP:135.6
ATIS:126.375
AWOS 3:126.375
COLUMBUS CLNC DEL:126.25
CTAF:120.025
GND/CLNC DEL:135.375
TWR:120.025
UNICOM:122.8

KGTR Zoom In..

Runways:

(A) RW 18 length 8003 ft width 150 ft
ILS 110.70 / hdg 182

(B) RW 36 length 8003 ft width 150 ft
ILS 111.15 / hdg 2

Location; KGTR
Day. 20 / Time. 01.56 Zulu
* Altimeter: 29.92
* Temperature: 28° c. 82.4°f.
* Wind from: 140° Speed 06 kn.
Dewpoint: 24° c.
Visibility: 10 Statute Miles.
Clouds: Few 9000 ft.

KGTR 200156Z AUTO 14006KT 10SM FEW090 28/24 A2992 RMK AO2 SLP132 T02780244 PNO $


Wind From 140°
Speed 06 kn.

 
 
jpsmedia.com for Web Design worldairports.se 2018   terms of use